createdAt,value
2018-05-24T00:01:12.855Z,2.70
2018-05-24T00:06:13.805Z,2.73
2018-05-24T00:11:14.772Z,2.23
2018-05-24T00:16:15.726Z,2.73
2018-05-24T00:21:16.731Z,2.27
2018-05-24T00:26:17.696Z,2.50
2018-05-24T00:31:18.780Z,2.67
2018-05-24T00:36:19.693Z,2.23
2018-05-24T00:41:20.659Z,2.53
2018-05-24T00:46:21.655Z,2.90
2018-05-24T00:51:22.634Z,3.00
2018-05-24T00:56:23.636Z,2.90
2018-05-24T01:01:24.601Z,2.70
2018-05-24T01:06:32.440Z,2.80
2018-05-24T01:11:33.387Z,2.60
2018-05-24T01:16:34.354Z,3.20
2018-05-24T01:21:35.332Z,3.00
2018-05-24T01:26:36.303Z,2.40
2018-05-24T01:31:37.317Z,2.60
2018-05-24T01:42:11.116Z,2.20
2018-05-24T01:47:12.056Z,2.57
2018-05-24T01:52:13.014Z,2.57
2018-05-24T01:57:13.977Z,3.23
2018-05-24T02:02:14.949Z,2.30
2018-05-24T02:07:15.923Z,2.70
2018-05-24T02:12:16.851Z,2.67
2018-05-24T02:17:17.828Z,3.10
2018-05-24T02:22:18.801Z,2.20
2018-05-24T02:27:19.773Z,2.90
2018-05-24T02:32:20.765Z,3.10
2018-05-24T02:37:21.722Z,2.30
2018-05-24T02:42:22.678Z,2.30
2018-05-24T02:47:23.649Z,2.70
2018-05-24T02:52:24.622Z,2.47
2018-05-24T02:57:25.569Z,3.10
2018-05-24T03:02:26.520Z,4.13
2018-05-24T03:07:27.475Z,2.90
2018-05-24T03:12:28.458Z,3.20
2018-05-24T03:17:29.438Z,2.80
2018-05-24T03:22:30.393Z,3.40
2018-05-24T03:27:31.359Z,2.70
2018-05-24T03:32:32.333Z,3.10
2018-05-24T03:37:33.290Z,3.60
2018-05-24T03:42:34.260Z,3.30
2018-05-24T03:47:35.201Z,2.80
2018-05-24T03:52:36.148Z,2.97
2018-05-24T03:57:37.173Z,2.90
2018-05-24T04:03:05.499Z,2.80
2018-05-24T04:08:06.456Z,2.57
2018-05-24T04:13:07.422Z,2.50
2018-05-24T04:18:08.401Z,3.00
2018-05-24T04:23:09.444Z,2.70
2018-05-24T04:28:10.416Z,3.23
2018-05-24T04:33:11.391Z,3.13
2018-05-24T04:38:12.345Z,3.10
2018-05-24T04:43:13.291Z,2.73
2018-05-24T04:48:14.240Z,2.60
2018-05-24T04:53:15.192Z,3.30
2018-05-24T04:58:16.139Z,3.10
2018-05-24T05:03:17.078Z,3.70
2018-05-24T05:08:18.048Z,3.73
2018-05-24T05:13:19.055Z,3.60
2018-05-24T05:18:19.988Z,3.10
2018-05-24T05:23:20.958Z,3.10
2018-05-24T05:28:21.919Z,2.73
2018-05-24T05:33:22.924Z,2.70
2018-05-24T05:38:23.911Z,3.90
2018-05-24T05:43:24.872Z,3.60
2018-05-24T05:48:25.862Z,3.33
2018-05-24T05:53:26.828Z,2.87
2018-05-24T05:58:27.806Z,2.90
2018-05-24T06:03:28.756Z,3.70
2018-05-24T06:08:29.728Z,3.20
2018-05-24T06:13:30.682Z,3.20
2018-05-24T06:18:31.635Z,2.67
2018-05-24T06:23:32.594Z,3.07
2018-05-24T06:28:33.762Z,3.40
2018-05-24T06:33:34.522Z,3.67
2018-05-24T06:38:35.470Z,3.70
2018-05-24T06:43:36.427Z,3.23
2018-05-24T06:48:37.400Z,3.47
2018-05-24T06:53:38.380Z,3.07
2018-05-24T06:58:39.380Z,2.87
2018-05-24T07:03:40.356Z,3.10
2018-05-24T07:08:41.325Z,3.30
2018-05-24T07:13:42.287Z,3.00
2018-05-24T07:18:43.251Z,3.17
2018-05-24T07:23:44.238Z,2.80
2018-05-24T07:28:45.198Z,3.30
2018-05-24T07:33:46.210Z,3.50
2018-05-24T07:38:47.200Z,3.13
2018-05-24T07:43:48.159Z,2.93
2018-05-24T07:48:49.118Z,2.47
2018-05-24T07:53:50.087Z,2.50
2018-05-24T07:58:51.070Z,2.13
2018-05-24T08:03:52.042Z,2.43
2018-05-24T08:08:53.045Z,2.50
2018-05-24T08:13:53.999Z,3.03
2018-05-24T08:18:54.958Z,2.33
2018-05-24T08:23:55.964Z,2.83
2018-05-24T08:28:56.944Z,2.40
2018-05-24T08:33:57.949Z,3.00
2018-05-24T08:38:58.942Z,2.67
2018-05-24T08:43:59.931Z,2.87
2018-05-24T08:49:01.669Z,2.50
2018-05-24T08:54:02.824Z,2.80
2018-05-24T08:59:03.788Z,2.60
2018-05-24T09:04:04.760Z,2.13
2018-05-24T09:09:05.885Z,2.20
2018-05-24T09:14:06.775Z,2.10
2018-05-24T09:19:07.756Z,2.20
2018-05-24T09:24:08.735Z,2.40
2018-05-24T09:29:09.720Z,2.10
2018-05-24T09:34:10.740Z,2.40
2018-05-24T09:39:11.762Z,2.20
2018-05-24T09:44:12.742Z,2.43
2018-05-24T09:49:13.736Z,2.73
2018-05-24T09:54:14.719Z,2.30
2018-05-24T09:59:15.693Z,2.57
2018-05-24T10:04:16.630Z,2.70
2018-05-24T10:09:17.598Z,2.33
2018-05-24T10:14:18.616Z,2.73
2018-05-24T10:19:19.588Z,2.67
2018-05-24T10:24:20.596Z,2.97
2018-05-24T10:29:21.647Z,2.13
2018-05-24T10:34:22.694Z,2.80
2018-05-24T10:39:23.712Z,2.57
2018-05-24T10:44:24.689Z,2.70
2018-05-24T10:49:25.672Z,2.73
2018-05-24T10:54:26.645Z,2.50
2018-05-24T10:59:27.619Z,2.53
2018-05-24T11:04:28.595Z,2.80
2018-05-24T11:09:29.563Z,2.90
2018-05-24T11:14:30.524Z,3.30
2018-05-24T11:19:31.516Z,3.00
2018-05-24T11:24:32.530Z,3.50
2018-05-24T11:29:33.536Z,2.93
2018-05-24T11:34:34.535Z,2.70
2018-05-24T11:39:35.509Z,3.07
2018-05-24T11:44:36.468Z,2.60
2018-05-24T11:49:37.444Z,2.97
2018-05-24T11:54:38.405Z,3.20
2018-05-24T11:59:39.439Z,2.30
2018-05-24T12:04:40.412Z,2.83
2018-05-24T12:09:41.380Z,3.27
2018-05-24T12:14:42.378Z,2.87
2018-05-24T12:19:43.376Z,2.67
2018-05-24T12:24:44.357Z,2.57
2018-05-24T12:29:45.349Z,2.50
2018-05-24T12:34:46.356Z,2.50
2018-05-24T12:39:47.328Z,2.87
2018-05-24T12:44:48.307Z,2.30
2018-05-24T12:49:49.304Z,2.67
2018-05-24T12:54:50.276Z,2.57
2018-05-24T12:59:51.245Z,3.17
2018-05-24T13:04:52.204Z,2.80
2018-05-24T13:09:53.201Z,2.60
2018-05-24T13:14:54.192Z,2.83
2018-05-24T13:19:55.167Z,2.57
2018-05-24T13:24:56.164Z,2.57
2018-05-24T13:29:57.161Z,2.63
2018-05-24T13:34:58.175Z,2.60
2018-05-24T13:39:59.160Z,2.90
2018-05-24T13:45:00.184Z,2.23
2018-05-24T13:50:01.160Z,2.10
2018-05-24T13:55:02.179Z,1.80
2018-05-24T14:00:03.172Z,3.70
2018-05-24T14:05:04.148Z,2.70
2018-05-24T14:10:05.116Z,2.40
2018-05-24T14:15:06.091Z,2.40
2018-05-24T14:20:07.072Z,2.20
2018-05-24T14:25:08.088Z,2.47
2018-05-24T14:30:09.077Z,2.20
2018-05-24T14:35:10.088Z,2.07
2018-05-24T14:40:11.081Z,2.37
2018-05-24T14:45:12.086Z,2.13
2018-05-24T14:50:13.058Z,2.13
2018-05-24T14:55:14.041Z,2.47
2018-05-24T15:00:14.994Z,2.30
2018-05-24T15:05:15.953Z,2.70
2018-05-24T15:10:16.905Z,2.10
2018-05-24T15:15:17.892Z,2.10
2018-05-24T15:20:18.884Z,1.83
2018-05-24T15:25:19.886Z,2.30
2018-05-24T15:30:20.893Z,1.93
2018-05-24T15:35:21.924Z,2.30
2018-05-24T15:40:22.919Z,2.13
2018-05-24T15:45:23.913Z,2.10
2018-05-24T15:50:24.877Z,1.93
2018-05-24T15:55:25.876Z,1.80
2018-05-24T16:00:26.846Z,2.07
2018-05-24T16:05:27.876Z,1.90
2018-05-24T16:10:28.831Z,2.30
2018-05-24T16:15:29.833Z,1.90
2018-05-24T16:20:30.857Z,2.43
2018-05-24T16:25:31.860Z,1.90
2018-05-24T16:30:32.854Z,2.10
2018-05-24T16:35:33.882Z,2.30
2018-05-24T16:40:34.832Z,2.37
2018-05-24T16:45:35.844Z,2.07
2018-05-24T16:50:37.042Z,2.10
2018-05-24T16:55:38.034Z,2.23
2018-05-24T17:00:39.086Z,2.40
2018-05-24T17:05:40.109Z,2.80
2018-05-24T17:10:41.124Z,2.40
2018-05-24T17:15:42.092Z,2.03
2018-05-24T17:20:43.088Z,2.00
2018-05-24T17:25:44.083Z,1.80
2018-05-24T17:30:45.134Z,1.80
2018-05-24T17:35:46.199Z,1.77
2018-05-24T17:40:47.238Z,2.20
2018-05-24T17:45:48.262Z,2.47
2018-05-24T17:50:49.265Z,1.70
2018-05-24T17:55:50.273Z,2.20
2018-05-24T18:00:51.283Z,2.40
2018-05-24T18:05:52.268Z,1.70
2018-05-24T18:10:53.293Z,2.53
2018-05-24T18:15:54.297Z,2.20
2018-05-24T18:20:55.321Z,2.00
2018-05-24T18:25:56.323Z,2.03
2018-05-24T18:30:57.333Z,2.53
2018-05-24T18:35:58.374Z,2.63
2018-05-24T18:40:59.327Z,2.20
2018-05-24T18:46:00.334Z,1.67
2018-05-24T18:51:01.324Z,2.43
2018-05-24T18:56:02.342Z,2.40
2018-05-24T19:01:03.349Z,2.70
2018-05-24T19:06:04.390Z,2.67
2018-05-24T19:11:05.418Z,2.23
2018-05-24T19:16:06.457Z,3.50
2018-05-24T19:21:07.481Z,2.50
2018-05-24T19:26:08.495Z,2.87
2018-05-24T19:31:09.478Z,2.93
2018-05-24T19:36:10.513Z,3.07
2018-05-24T19:41:11.515Z,3.30
2018-05-24T19:46:12.565Z,3.37
2018-05-24T19:51:13.571Z,3.70
2018-05-24T19:56:14.637Z,2.70
2018-05-24T20:01:15.642Z,3.57
2018-05-24T20:06:16.698Z,3.03
2018-05-24T20:11:17.715Z,3.80
2018-05-24T20:16:18.693Z,3.70
2018-05-24T20:21:19.660Z,3.70
2018-05-24T20:26:20.633Z,3.73
2018-05-24T20:31:21.645Z,3.57
2018-05-24T20:36:22.655Z,3.80
2018-05-24T20:41:23.645Z,3.33
2018-05-24T20:46:24.610Z,4.33
2018-05-24T20:51:25.601Z,3.00
2018-05-24T20:56:26.595Z,3.40
2018-05-24T21:01:27.634Z,3.30
2018-05-24T21:06:29.669Z,3.37
2018-05-24T21:11:30.658Z,3.80
2018-05-24T21:16:31.653Z,3.50
2018-05-24T21:21:32.613Z,3.50
2018-05-24T21:26:33.596Z,3.63
2018-05-24T21:31:34.581Z,3.50
2018-05-24T21:36:35.581Z,3.60
2018-05-24T21:41:36.609Z,3.20
2018-05-24T21:46:37.730Z,3.77
2018-05-24T21:51:38.985Z,3.43
2018-05-24T21:56:40.013Z,3.07
2018-05-24T22:01:40.991Z,3.00
2018-05-24T22:06:41.966Z,3.20
2018-05-24T22:11:42.945Z,4.30
2018-05-24T22:16:43.927Z,3.10
2018-05-24T22:21:44.911Z,3.83
2018-05-24T22:26:45.883Z,3.13
2018-05-24T22:31:46.880Z,4.70
2018-05-24T22:36:47.899Z,3.37
2018-05-24T22:41:48.883Z,3.70
2018-05-24T22:46:49.833Z,4.17
2018-05-24T22:51:50.783Z,3.50
2018-05-24T22:56:51.724Z,3.90
2018-05-24T23:01:52.716Z,4.50
2018-05-24T23:06:53.682Z,3.57
2018-05-24T23:11:54.659Z,4.50
2018-05-24T23:16:55.607Z,3.63
2018-05-24T23:21:56.579Z,3.80
2018-05-24T23:26:57.539Z,4.27
2018-05-24T23:31:58.570Z,3.53
2018-05-24T23:36:59.540Z,3.97
2018-05-24T23:42:00.512Z,3.83
2018-05-24T23:47:01.486Z,3.97
2018-05-24T23:52:02.461Z,4.07
2018-05-24T23:57:03.457Z,3.90
